sensor_id;sensor_type;location;lat;lon;timestamp;P1;durP1;ratioP1;P2;durP2;ratioP2
7523;SDS011;3803;51.666;7.630;2024-02-16T00:00:15;3.03;;;2.00;;
7523;SDS011;3803;51.666;7.630;2024-02-16T00:00:36;3.95;;;2.20;;
7523;SDS011;3803;51.666;7.630;2024-02-16T00:00:57;3.93;;;2.20;;
7523;SDS011;3803;51.666;7.630;2024-02-16T00:01:19;7.30;;;1.85;;
7523;SDS011;3803;51.666;7.630;2024-02-16T00:01:39;7.18;;;1.70;;
7523;SDS011;3803;51.666;7.630;2024-02-16T00:02:00;6.82;;;1.60;;
7523;SDS011;3803;51.666;7.630;2024-02-16T00:02:21;2.13;;;1.27;;
7523;SDS011;3803;51.666;7.630;2024-02-16T00:02:44;1.83;;;1.25;;
7523;SDS011;3803;51.666;7.630;2024-02-16T00:03:06;2.75;;;1.50;;
7523;SDS011;3803;51.666;7.630;2024-02-16T00:03:27;3.23;;;1.70;;
7523;SDS011;3803;51.666;7.630;2024-02-16T00:03:48;2.42;;;1.63;;
7523;SDS011;3803;51.666;7.630;2024-02-16T00:04:08;3.20;;;1.60;;
7523;SDS011;3803;51.666;7.630;2024-02-16T00:04:29;2.80;;;1.50;;
7523;SDS011;3803;51.666;7.630;2024-02-16T00:04:51;5.80;;;1.60;;
7523;SDS011;3803;51.666;7.630;2024-02-16T00:05:11;5.90;;;1.60;;
7523;SDS011;3803;51.666;7.630;2024-02-16T00:05:32;5.87;;;1.67;;
7523;SDS011;3803;51.666;7.630;2024-02-16T00:05:53;3.20;;;1.60;;
7523;SDS011;3803;51.666;7.630;2024-02-16T00:06:14;1.90;;;1.40;;
7523;SDS011;3803;51.666;7.630;2024-02-16T00:06:34;4.70;;;1.77;;
7523;SDS011;3803;51.666;7.630;2024-02-16T00:06:56;4.63;;;1.70;;
7523;SDS011;3803;51.666;7.630;2024-02-16T00:07:16;4.75;;;1.85;;
7523;SDS011;3803;51.666;7.630;2024-02-16T00:07:38;2.20;;;1.60;;
7523;SDS011;3803;51.666;7.630;2024-02-16T00:07:59;2.47;;;1.58;;
7523;SDS011;3803;51.666;7.630;2024-02-16T00:08:19;3.05;;;1.55;;
7523;SDS011;3803;51.666;7.630;2024-02-16T00:08:40;3.17;;;1.55;;
7523;SDS011;3803;51.666;7.630;2024-02-16T00:09:01;2.63;;;1.40;;
7523;SDS011;3803;51.666;7.630;2024-02-16T00:09:22;1.80;;;1.40;;
7523;SDS011;3803;51.666;7.630;2024-02-16T00:09:43;1.50;;;1.40;;
7523;SDS011;3803;51.666;7.630;2024-02-16T00:10:04;1.70;;;1.60;;
7523;SDS011;3803;51.666;7.630;2024-02-16T00:10:26;2.42;;;1.65;;
7523;SDS011;3803;51.666;7.630;2024-02-16T00:10:47;3.05;;;1.88;;
7523;SDS011;3803;51.666;7.630;2024-02-16T00:11:08;2.80;;;1.70;;
7523;SDS011;3803;51.666;7.630;2024-02-16T00:11:30;3.30;;;1.75;;
7523;SDS011;3803;51.666;7.630;2024-02-16T00:11:50;3.40;;;1.80;;
7523;SDS011;3803;51.666;7.630;2024-02-16T00:12:12;3.40;;;1.80;;
7523;SDS011;3803;51.666;7.630;2024-02-16T00:12:35;2.10;;;1.50;;
7523;SDS011;3803;51.666;7.630;2024-02-16T00:12:56;1.63;;;1.30;;
7523;SDS011;3803;51.666;7.630;2024-02-16T00:13:17;2.25;;;1.35;;
7523;SDS011;3803;51.666;7.630;2024-02-16T00:13:38;2.00;;;1.40;;
7523;SDS011;3803;51.666;7.630;2024-02-16T00:13:58;2.45;;;1.50;;
7523;SDS011;3803;51.666;7.630;2024-02-16T00:14:20;2.17;;;1.50;;
7523;SDS011;3803;51.666;7.630;2024-02-16T00:14:44;2.40;;;1.60;;
7523;SDS011;3803;51.666;7.630;2024-02-16T00:15:06;2.13;;;1.55;;
7523;SDS011;3803;51.666;7.630;2024-02-16T00:15:27;3.05;;;1.80;;
7523;SDS011;3803;51.666;7.630;2024-02-16T00:15:48;3.37;;;1.90;;
7523;SDS011;3803;51.666;7.630;2024-02-16T00:16:09;3.10;;;1.80;;
7523;SDS011;3803;51.666;7.630;2024-02-16T00:16:30;2.33;;;1.70;;
7523;SDS011;3803;51.666;7.630;2024-02-16T00:16:51;1.75;;;1.50;;
7523;SDS011;3803;51.666;7.630;2024-02-16T00:17:11;4.00;;;1.70;;
7523;SDS011;3803;51.666;7.630;2024-02-16T00:17:32;4.60;;;1.70;;
7523;SDS011;3803;51.666;7.630;2024-02-16T00:17:53;5.20;;;1.90;;
7523;SDS011;3803;51.666;7.630;2024-02-16T00:18:14;3.03;;;1.80;;
7523;SDS011;3803;51.666;7.630;2024-02-16T00:18:35;2.07;;;1.60;;
7523;SDS011;3803;51.666;7.630;2024-02-16T00:18:55;1.50;;;1.40;;
7523;SDS011;3803;51.666;7.630;2024-02-16T00:19:16;1.80;;;1.50;;
7523;SDS011;3803;51.666;7.630;2024-02-16T00:19:37;2.10;;;1.60;;
7523;SDS011;3803;51.666;7.630;2024-02-16T00:19:57;2.00;;;1.60;;
7523;SDS011;3803;51.666;7.630;2024-02-16T00:20:18;1.60;;;1.40;;
7523;SDS011;3803;51.666;7.630;2024-02-16T00:20:42;1.30;;;1.20;;
7523;SDS011;3803;51.666;7.630;2024-02-16T00:21:03;1.30;;;1.20;;
7523;SDS011;3803;51.666;7.630;2024-02-16T00:21:25;2.17;;;1.40;;
7523;SDS011;3803;51.666;7.630;2024-02-16T00:21:50;3.75;;;1.60;;
7523;SDS011;3803;51.666;7.630;2024-02-16T00:22:11;4.00;;;1.60;;
7523;SDS011;3803;51.666;7.630;2024-02-16T00:22:33;2.50;;;1.60;;
7523;SDS011;3803;51.666;7.630;2024-02-16T00:22:54;2.65;;;1.60;;
7523;SDS011;3803;51.666;7.630;2024-02-16T00:23:15;2.40;;;1.60;;
7523;SDS011;3803;51.666;7.630;2024-02-16T00:23:36;1.88;;;1.50;;
7523;SDS011;3803;51.666;7.630;2024-02-16T00:23:57;1.90;;;1.58;;
7523;SDS011;3803;51.666;7.630;2024-02-16T00:24:17;2.30;;;1.70;;
7523;SDS011;3803;51.666;7.630;2024-02-16T00:24:38;2.63;;;1.80;;
7523;SDS011;3803;51.666;7.630;2024-02-16T00:24:59;2.60;;;1.60;;
7523;SDS011;3803;51.666;7.630;2024-02-16T00:25:20;2.33;;;1.60;;
7523;SDS011;3803;51.666;7.630;2024-02-16T00:25:41;1.88;;;1.45;;
7523;SDS011;3803;51.666;7.630;2024-02-16T00:26:02;2.20;;;1.50;;
7523;SDS011;3803;51.666;7.630;2024-02-16T00:26:27;2.60;;;1.65;;
7523;SDS011;3803;51.666;7.630;2024-02-16T00:26:47;2.67;;;1.63;;
7523;SDS011;3803;51.666;7.630;2024-02-16T00:27:08;2.60;;;1.63;;
7523;SDS011;3803;51.666;7.630;2024-02-16T00:27:29;2.45;;;1.58;;
7523;SDS011;3803;51.666;7.630;2024-02-16T00:27:50;3.65;;;1.42;;
7523;SDS011;3803;51.666;7.630;2024-02-16T00:28:13;3.90;;;1.50;;
7523;SDS011;3803;51.666;7.630;2024-02-16T00:28:34;4.35;;;1.77;;
7523;SDS011;3803;51.666;7.630;2024-02-16T00:28:54;2.70;;;1.95;;
7523;SDS011;3803;51.666;7.630;2024-02-16T00:29:15;2.70;;;1.90;;
7523;SDS011;3803;51.666;7.630;2024-02-16T00:29:36;2.63;;;1.73;;
7523;SDS011;3803;51.666;7.630;2024-02-16T00:29:58;2.20;;;1.40;;
7523;SDS011;3803;51.666;7.630;2024-02-16T00:30:19;2.85;;;1.40;;
7523;SDS011;3803;51.666;7.630;2024-02-16T00:30:40;2.80;;;1.50;;
7523;SDS011;3803;51.666;7.630;2024-02-16T00:31:01;3.90;;;1.90;;
7523;SDS011;3803;51.666;7.630;2024-02-16T00:31:22;3.13;;;1.80;;
7523;SDS011;3803;51.666;7.630;2024-02-16T00:31:43;4.18;;;1.80;;
7523;SDS011;3803;51.666;7.630;2024-02-16T00:32:04;3.10;;;1.50;;
7523;SDS011;3803;51.666;7.630;2024-02-16T00:32:26;3.05;;;1.58;;
7523;SDS011;3803;51.666;7.630;2024-02-16T00:32:50;2.05;;;1.60;;
7523;SDS011;3803;51.666;7.630;2024-02-16T00:33:12;3.90;;;1.80;;
7523;SDS011;3803;51.666;7.630;2024-02-16T00:33:33;3.75;;;1.60;;
7523;SDS011;3803;51.666;7.630;2024-02-16T00:33:54;4.40;;;1.60;;
7523;SDS011;3803;51.666;7.630;2024-02-16T00:34:14;2.70;;;1.40;;
7523;SDS011;3803;51.666;7.630;2024-02-16T00:34:35;2.80;;;1.50;;
7523;SDS011;3803;51.666;7.630;2024-02-16T00:34:57;2.00;;;1.43;;
7523;SDS011;3803;51.666;7.630;2024-02-16T00:35:19;1.88;;;1.35;;
7523;SDS011;3803;51.666;7.630;2024-02-16T00:35:39;3.10;;;1.30;;
7523;SDS011;3803;51.666;7.630;2024-02-16T00:36:00;4.85;;;1.45;;
7523;SDS011;3803;51.666;7.630;2024-02-16T00:36:21;6.28;;;1.50;;
7523;SDS011;3803;51.666;7.630;2024-02-16T00:36:41;7.43;;;1.60;;
7523;SDS011;3803;51.666;7.630;2024-02-16T00:37:02;5.18;;;1.65;;
7523;SDS011;3803;51.666;7.630;2024-02-16T00:37:31;4.95;;;1.80;;
7523;SDS011;3803;51.666;7.630;2024-02-16T00:39:46;2.42;;;1.45;;
7523;SDS011;3803;51.666;7.630;2024-02-16T00:41:23;5.60;;;1.60;;
7523;SDS011;3803;51.666;7.630;2024-02-16T00:41:44;1.80;;;1.30;;
7523;SDS011;3803;51.666;7.630;2024-02-16T00:42:06;1.85;;;1.30;;
7523;SDS011;3803;51.666;7.630;2024-02-16T00:42:27;7.22;;;1.70;;
7523;SDS011;3803;51.666;7.630;2024-02-16T00:42:51;7.20;;;1.80;;
7523;SDS011;3803;51.666;7.630;2024-02-16T00:43:11;7.38;;;1.63;;
7523;SDS011;3803;51.666;7.630;2024-02-16T00:43:32;2.90;;;1.30;;
7523;SDS011;3803;51.666;7.630;2024-02-16T00:43:53;4.30;;;1.40;;
7523;SDS011;3803;51.666;7.630;2024-02-16T00:44:13;4.47;;;1.60;;
7523;SDS011;3803;51.666;7.630;2024-02-16T00:44:34;3.40;;;1.52;;
7523;SDS011;3803;51.666;7.630;2024-02-16T00:44:55;3.13;;;1.50;;
7523;SDS011;3803;51.666;7.630;2024-02-16T00:45:16;3.10;;;1.50;;
7523;SDS011;3803;51.666;7.630;2024-02-16T00:45:36;3.70;;;1.60;;
7523;SDS011;3803;51.666;7.630;2024-02-16T00:45:58;2.70;;;1.50;;
7523;SDS011;3803;51.666;7.630;2024-02-16T00:46:19;2.30;;;1.30;;
7523;SDS011;3803;51.666;7.630;2024-02-16T00:46:40;2.30;;;1.40;;
7523;SDS011;3803;51.666;7.630;2024-02-16T00:47:01;2.30;;;1.30;;
7523;SDS011;3803;51.666;7.630;2024-02-16T00:47:22;2.33;;;1.60;;
7523;SDS011;3803;51.666;7.630;2024-02-16T00:47:43;3.00;;;1.60;;
7523;SDS011;3803;51.666;7.630;2024-02-16T00:48:06;3.83;;;1.70;;
7523;SDS011;3803;51.666;7.630;2024-02-16T00:48:27;3.60;;;1.40;;
7523;SDS011;3803;51.666;7.630;2024-02-16T00:48:51;4.80;;;1.37;;
7523;SDS011;3803;51.666;7.630;2024-02-16T00:49:12;5.10;;;1.40;;
7523;SDS011;3803;51.666;7.630;2024-02-16T00:49:33;5.20;;;1.20;;
7523;SDS011;3803;51.666;7.630;2024-02-16T00:49:56;1.98;;;1.20;;
7523;SDS011;3803;51.666;7.630;2024-02-16T00:50:17;1.58;;;1.20;;
7523;SDS011;3803;51.666;7.630;2024-02-16T00:50:38;1.75;;;1.40;;
7523;SDS011;3803;51.666;7.630;2024-02-16T00:51:01;2.30;;;1.47;;
7523;SDS011;3803;51.666;7.630;2024-02-16T00:51:22;2.25;;;1.50;;
7523;SDS011;3803;51.666;7.630;2024-02-16T00:51:46;2.10;;;1.48;;
7523;SDS011;3803;51.666;7.630;2024-02-16T00:52:06;2.33;;;1.42;;
7523;SDS011;3803;51.666;7.630;2024-02-16T00:52:28;2.90;;;1.40;;
7523;SDS011;3803;51.666;7.630;2024-02-16T00:52:48;2.88;;;1.50;;
7523;SDS011;3803;51.666;7.630;2024-02-16T00:53:11;2.60;;;1.65;;
7523;SDS011;3803;51.666;7.630;2024-02-16T00:53:32;3.20;;;1.70;;
7523;SDS011;3803;51.666;7.630;2024-02-16T00:53:53;3.33;;;1.55;;
7523;SDS011;3803;51.666;7.630;2024-02-16T00:54:14;3.47;;;1.40;;
7523;SDS011;3803;51.666;7.630;2024-02-16T00:54:34;3.65;;;1.50;;
7523;SDS011;3803;51.666;7.630;2024-02-16T00:54:55;5.33;;;1.53;;
7523;SDS011;3803;51.666;7.630;2024-02-16T00:55:16;5.00;;;1.50;;
7523;SDS011;3803;51.666;7.630;2024-02-16T00:55:37;4.68;;;1.42;;
7523;SDS011;3803;51.666;7.630;2024-02-16T00:55:58;3.00;;;1.33;;
7523;SDS011;3803;51.666;7.630;2024-02-16T00:56:19;2.90;;;1.40;;
7523;SDS011;3803;51.666;7.630;2024-02-16T00:56:40;1.90;;;1.33;;
7523;SDS011;3803;51.666;7.630;2024-02-16T00:57:00;1.67;;;1.35;;
7523;SDS011;3803;51.666;7.630;2024-02-16T00:57:22;1.90;;;1.30;;
7523;SDS011;3803;51.666;7.630;2024-02-16T00:57:43;1.90;;;1.30;;
7523;SDS011;3803;51.666;7.630;2024-02-16T00:58:04;2.75;;;1.48;;
7523;SDS011;3803;51.666;7.630;2024-02-16T00:58:25;2.80;;;1.50;;
7523;SDS011;3803;51.666;7.630;2024-02-16T00:58:45;6.03;;;1.67;;
7523;SDS011;3803;51.666;7.630;2024-02-16T00:59:06;5.10;;;1.45;;
7523;SDS011;3803;51.666;7.630;2024-02-16T00:59:29;3.35;;;1.50;;
7523;SDS011;3803;51.666;7.630;2024-02-16T00:59:50;2.40;;;1.30;;
7523;SDS011;3803;51.666;7.630;2024-02-16T01:00:11;2.23;;;1.40;;
7523;SDS011;3803;51.666;7.630;2024-02-16T01:00:32;1.80;;;1.30;;
7523;SDS011;3803;51.666;7.630;2024-02-16T01:00:52;2.47;;;1.50;;
7523;SDS011;3803;51.666;7.630;2024-02-16T01:01:13;2.53;;;1.30;;
7523;SDS011;3803;51.666;7.630;2024-02-16T01:01:35;2.90;;;1.40;;
7523;SDS011;3803;51.666;7.630;2024-02-16T01:01:56;2.15;;;1.20;;
7523;SDS011;3803;51.666;7.630;2024-02-16T01:02:17;1.48;;;1.15;;
7523;SDS011;3803;51.666;7.630;2024-02-16T01:02:38;1.20;;;1.10;;
7523;SDS011;3803;51.666;7.630;2024-02-16T01:02:59;1.30;;;1.20;;
7523;SDS011;3803;51.666;7.630;2024-02-16T01:03:19;1.38;;;1.23;;
7523;SDS011;3803;51.666;7.630;2024-02-16T01:03:42;1.83;;;1.30;;
7523;SDS011;3803;51.666;7.630;2024-02-16T01:04:04;4.60;;;1.30;;
7523;SDS011;3803;51.666;7.630;2024-02-16T01:04:24;5.50;;;1.30;;
7523;SDS011;3803;51.666;7.630;2024-02-16T01:04:45;5.67;;;1.50;;
7523;SDS011;3803;51.666;7.630;2024-02-16T01:05:07;2.92;;;1.40;;
7523;SDS011;3803;51.666;7.630;2024-02-16T01:05:30;2.42;;;1.50;;
7523;SDS011;3803;51.666;7.630;2024-02-16T01:05:51;2.08;;;1.30;;
7523;SDS011;3803;51.666;7.630;2024-02-16T01:06:11;3.00;;;1.50;;
7523;SDS011;3803;51.666;7.630;2024-02-16T01:06:32;2.20;;;1.30;;
7523;SDS011;3803;51.666;7.630;2024-02-16T01:06:53;2.00;;;1.33;;
7523;SDS011;3803;51.666;7.630;2024-02-16T01:07:14;2.00;;;1.20;;
7523;SDS011;3803;51.666;7.630;2024-02-16T01:07:35;3.20;;;1.40;;
7523;SDS011;3803;51.666;7.630;2024-02-16T01:07:56;3.75;;;1.50;;
7523;SDS011;3803;51.666;7.630;2024-02-16T01:08:16;3.42;;;1.60;;
7523;SDS011;3803;51.666;7.630;2024-02-16T01:08:37;2.47;;;1.50;;
7523;SDS011;3803;51.666;7.630;2024-02-16T01:08:58;1.90;;;1.30;;
7523;SDS011;3803;51.666;7.630;2024-02-16T01:09:19;1.75;;;1.20;;
7523;SDS011;3803;51.666;7.630;2024-02-16T01:09:39;1.60;;;1.10;;
7523;SDS011;3803;51.666;7.630;2024-02-16T01:10:00;1.63;;;1.20;;
7523;SDS011;3803;51.666;7.630;2024-02-16T01:10:23;1.40;;;1.10;;
7523;SDS011;3803;51.666;7.630;2024-02-16T01:10:44;1.70;;;1.30;;
7523;SDS011;3803;51.666;7.630;2024-02-16T01:11:05;1.40;;;1.20;;
7523;SDS011;3803;51.666;7.630;2024-02-16T01:11:25;1.50;;;1.20;;
7523;SDS011;3803;51.666;7.630;2024-02-16T01:11:46;1.35;;;1.23;;
7523;SDS011;3803;51.666;7.630;2024-02-16T01:12:07;3.40;;;1.58;;
7523;SDS011;3803;51.666;7.630;2024-02-16T01:12:28;3.58;;;1.67;;
7523;SDS011;3803;51.666;7.630;2024-02-16T01:12:51;3.30;;;1.50;;
7523;SDS011;3803;51.666;7.630;2024-02-16T01:13:12;1.52;;;1.20;;
7523;SDS011;3803;51.666;7.630;2024-02-16T01:13:33;1.40;;;1.10;;
7523;SDS011;3803;51.666;7.630;2024-02-16T01:13:54;1.23;;;1.10;;
7523;SDS011;3803;51.666;7.630;2024-02-16T01:14:15;1.75;;;1.35;;
7523;SDS011;3803;51.666;7.630;2024-02-16T01:14:35;2.08;;;1.30;;
7523;SDS011;3803;51.666;7.630;2024-02-16T01:14:57;2.58;;;1.40;;
7523;SDS011;3803;51.666;7.630;2024-02-16T01:15:18;2.60;;;1.40;;
7523;SDS011;3803;51.666;7.630;2024-02-16T01:15:38;2.72;;;1.50;;
7523;SDS011;3803;51.666;7.630;2024-02-16T01:16:01;3.28;;;1.50;;
7523;SDS011;3803;51.666;7.630;2024-02-16T01:16:23;2.88;;;1.50;;
7523;SDS011;3803;51.666;7.630;2024-02-16T01:16:47;2.13;;;1.30;;
7523;SDS011;3803;51.666;7.630;2024-02-16T01:17:08;1.70;;;1.20;;
7523;SDS011;3803;51.666;7.630;2024-02-16T01:17:29;1.67;;;1.27;;
7523;SDS011;3803;51.666;7.630;2024-02-16T01:17:50;1.60;;;1.20;;
7523;SDS011;3803;51.666;7.630;2024-02-16T01:18:11;1.70;;;1.30;;
7523;SDS011;3803;51.666;7.630;2024-02-16T01:18:31;1.73;;;1.30;;
7523;SDS011;3803;51.666;7.630;2024-02-16T01:18:53;2.00;;;1.40;;
7523;SDS011;3803;51.666;7.630;2024-02-16T01:19:13;2.53;;;1.40;;
7523;SDS011;3803;51.666;7.630;2024-02-16T01:19:34;3.63;;;1.55;;
7523;SDS011;3803;51.666;7.630;2024-02-16T01:19:55;3.47;;;1.40;;
7523;SDS011;3803;51.666;7.630;2024-02-16T01:20:17;2.70;;;1.33;;
7523;SDS011;3803;51.666;7.630;2024-02-16T01:20:37;1.80;;;1.20;;
7523;SDS011;3803;51.666;7.630;2024-02-16T01:20:58;1.30;;;1.20;;
7523;SDS011;3803;51.666;7.630;2024-02-16T01:21:19;1.23;;;1.10;;
7523;SDS011;3803;51.666;7.630;2024-02-16T01:21:40;1.20;;;1.10;;
7523;SDS011;3803;51.666;7.630;2024-02-16T01:22:01;3.85;;;1.30;;
7523;SDS011;3803;51.666;7.630;2024-02-16T01:22:22;4.30;;;1.40;;
7523;SDS011;3803;51.666;7.630;2024-02-16T01:22:43;4.50;;;1.40;;
7523;SDS011;3803;51.666;7.630;2024-02-16T01:23:04;2.30;;;1.30;;
7523;SDS011;3803;51.666;7.630;2024-02-16T01:23:25;2.10;;;1.30;;
7523;SDS011;3803;51.666;7.630;2024-02-16T01:23:46;2.22;;;1.25;;
7523;SDS011;3803;51.666;7.630;2024-02-16T01:24:06;3.40;;;1.30;;
7523;SDS011;3803;51.666;7.630;2024-02-16T01:24:27;3.30;;;1.13;;
7523;SDS011;3803;51.666;7.630;2024-02-16T01:24:47;2.35;;;1.02;;
7523;SDS011;3803;51.666;7.630;2024-02-16T01:25:09;1.20;;;1.08;;
7523;SDS011;3803;51.666;7.630;2024-02-16T01:25:32;1.50;;;1.20;;
7523;SDS011;3803;51.666;7.630;2024-02-16T01:25:53;1.50;;;1.20;;
7523;SDS011;3803;51.666;7.630;2024-02-16T01:26:13;1.40;;;1.10;;
7523;SDS011;3803;51.666;7.630;2024-02-16T01:26:35;1.40;;;1.10;;
7523;SDS011;3803;51.666;7.630;2024-02-16T01:26:56;1.55;;;1.20;;
7523;SDS011;3803;51.666;7.630;2024-02-16T01:27:17;2.40;;;1.20;;
7523;SDS011;3803;51.666;7.630;2024-02-16T01:27:38;2.92;;;1.50;;
7523;SDS011;3803;51.666;7.630;2024-02-16T01:28:01;3.30;;;1.45;;
7523;SDS011;3803;51.666;7.630;2024-02-16T01:28:21;2.60;;;1.40;;
7523;SDS011;3803;51.666;7.630;2024-02-16T01:28:43;2.30;;;1.20;;
7523;SDS011;3803;51.666;7.630;2024-02-16T01:29:04;2.38;;;1.30;;
7523;SDS011;3803;51.666;7.630;2024-02-16T01:29:25;2.33;;;1.42;;
7523;SDS011;3803;51.666;7.630;2024-02-16T01:29:46;2.57;;;1.60;;
7523;SDS011;3803;51.666;7.630;2024-02-16T01:30:07;2.03;;;1.50;;
7523;SDS011;3803;51.666;7.630;2024-02-16T01:30:28;2.00;;;1.38;;
7523;SDS011;3803;51.666;7.630;2024-02-16T01:30:49;1.67;;;1.15;;
7523;SDS011;3803;51.666;7.630;2024-02-16T01:31:10;1.70;;;1.10;;
7523;SDS011;3803;51.666;7.630;2024-02-16T01:31:32;1.60;;;1.15;;
7523;SDS011;3803;51.666;7.630;2024-02-16T01:31:52;1.90;;;1.33;;
7523;SDS011;3803;51.666;7.630;2024-02-16T01:32:13;1.87;;;1.33;;
7523;SDS011;3803;51.666;7.630;2024-02-16T01:32:34;1.88;;;1.38;;
7523;SDS011;3803;51.666;7.630;2024-02-16T01:32:55;1.48;;;1.20;;
7523;SDS011;3803;51.666;7.630;2024-02-16T01:33:15;2.00;;;1.20;;
7523;SDS011;3803;51.666;7.630;2024-02-16T01:33:37;2.20;;;1.30;;
7523;SDS011;3803;51.666;7.630;2024-02-16T01:33:57;2.28;;;1.30;;
7523;SDS011;3803;51.666;7.630;2024-02-16T01:34:18;2.30;;;1.30;;
7523;SDS011;3803;51.666;7.630;2024-02-16T01:34:39;2.20;;;1.30;;
7523;SDS011;3803;51.666;7.630;2024-02-16T01:35:00;2.20;;;1.30;;
7523;SDS011;3803;51.666;7.630;2024-02-16T01:35:20;1.73;;;1.30;;
7523;SDS011;3803;51.666;7.630;2024-02-16T01:35:41;2.00;;;1.40;;
7523;SDS011;3803;51.666;7.630;2024-02-16T01:36:02;2.55;;;1.50;;
7523;SDS011;3803;51.666;7.630;2024-02-16T01:36:23;2.58;;;1.40;;
7523;SDS011;3803;51.666;7.630;2024-02-16T01:36:44;2.40;;;1.40;;
7523;SDS011;3803;51.666;7.630;2024-02-16T01:37:05;1.90;;;1.20;;
7523;SDS011;3803;51.666;7.630;2024-02-16T01:37:25;1.80;;;1.20;;
7523;SDS011;3803;51.666;7.630;2024-02-16T01:37:47;1.75;;;1.10;;
7523;SDS011;3803;51.666;7.630;2024-02-16T01:38:08;1.50;;;1.15;;
7523;SDS011;3803;51.666;7.630;2024-02-16T01:38:29;1.40;;;1.10;;
7523;SDS011;3803;51.666;7.630;2024-02-16T01:38:51;1.50;;;1.30;;
7523;SDS011;3803;51.666;7.630;2024-02-16T01:39:12;4.40;;;1.35;;
7523;SDS011;3803;51.666;7.630;2024-02-16T01:39:32;4.90;;;1.40;;
7523;SDS011;3803;51.666;7.630;2024-02-16T01:39:53;5.10;;;1.50;;
7523;SDS011;3803;51.666;7.630;2024-02-16T01:40:14;2.00;;;1.30;;
7523;SDS011;3803;51.666;7.630;2024-02-16T01:40:37;2.88;;;1.50;;
7523;SDS011;3803;51.666;7.630;2024-02-16T01:40:57;3.20;;;1.60;;
7523;SDS011;3803;51.666;7.630;2024-02-16T01:41:18;3.30;;;1.70;;
7523;SDS011;3803;51.666;7.630;2024-02-16T01:41:39;3.00;;;1.70;;
7523;SDS011;3803;51.666;7.630;2024-02-16T01:42:00;2.03;;;1.37;;
7523;SDS011;3803;51.666;7.630;2024-02-16T01:42:21;3.85;;;1.50;;
7523;SDS011;3803;51.666;7.630;2024-02-16T01:42:41;3.70;;;1.50;;
7523;SDS011;3803;51.666;7.630;2024-02-16T01:43:02;3.80;;;1.60;;
7523;SDS011;3803;51.666;7.630;2024-02-16T01:43:23;2.00;;;1.38;;
7523;SDS011;3803;51.666;7.630;2024-02-16T01:43:44;1.60;;;1.20;;
7523;SDS011;3803;51.666;7.630;2024-02-16T01:44:05;2.77;;;1.30;;
7523;SDS011;3803;51.666;7.630;2024-02-16T01:44:25;3.35;;;1.55;;
7523;SDS011;3803;51.666;7.630;2024-02-16T01:44:46;3.75;;;1.70;;
7523;SDS011;3803;51.666;7.630;2024-02-16T01:45:07;2.65;;;1.40;;
7523;SDS011;3803;51.666;7.630;2024-02-16T01:45:29;2.92;;;1.40;;
7523;SDS011;3803;51.666;7.630;2024-02-16T01:45:50;2.53;;;1.40;;
7523;SDS011;3803;51.666;7.630;2024-02-16T01:46:10;2.70;;;1.40;;
7523;SDS011;3803;51.666;7.630;2024-02-16T01:46:32;2.13;;;1.30;;
7523;SDS011;3803;51.666;7.630;2024-02-16T01:46:54;1.75;;;1.33;;
7523;SDS011;3803;51.666;7.630;2024-02-16T01:47:15;1.80;;;1.40;;
7523;SDS011;3803;51.666;7.630;2024-02-16T01:47:38;2.00;;;1.50;;
7523;SDS011;3803;51.666;7.630;2024-02-16T01:47:59;2.17;;;1.50;;
7523;SDS011;3803;51.666;7.630;2024-02-16T01:48:20;2.22;;;1.42;;
7523;SDS011;3803;51.666;7.630;2024-02-16T01:48:41;2.40;;;1.50;;
7523;SDS011;3803;51.666;7.630;2024-02-16T01:49:02;2.30;;;1.48;;
7523;SDS011;3803;51.666;7.630;2024-02-16T01:49:23;2.03;;;1.40;;
7523;SDS011;3803;51.666;7.630;2024-02-16T01:49:44;2.15;;;1.40;;
7523;SDS011;3803;51.666;7.630;2024-02-16T01:50:05;2.45;;;1.60;;
7523;SDS011;3803;51.666;7.630;2024-02-16T01:50:27;2.38;;;1.50;;
7523;SDS011;3803;51.666;7.630;2024-02-16T01:50:49;2.03;;;1.35;;
7523;SDS011;3803;51.666;7.630;2024-02-16T01:51:11;1.73;;;1.13;;
7523;SDS011;3803;51.666;7.630;2024-02-16T01:51:32;1.25;;;0.98;;
7523;SDS011;3803;51.666;7.630;2024-02-16T01:51:53;1.58;;;1.00;;
7523;SDS011;3803;51.666;7.630;2024-02-16T01:52:14;1.57;;;1.00;;
7523;SDS011;3803;51.666;7.630;2024-02-16T01:52:35;2.47;;;1.10;;
7523;SDS011;3803;51.666;7.630;2024-02-16T01:52:57;2.38;;;1.20;;
7523;SDS011;3803;51.666;7.630;2024-02-16T01:53:18;2.77;;;1.30;;
7523;SDS011;3803;51.666;7.630;2024-02-16T01:53:39;3.87;;;1.47;;
7523;SDS011;3803;51.666;7.630;2024-02-16T01:54:00;3.53;;;1.35;;
7523;SDS011;3803;51.666;7.630;2024-02-16T01:54:22;6.28;;;1.40;;
7523;SDS011;3803;51.666;7.630;2024-02-16T01:54:43;5.10;;;1.30;;
7523;SDS011;3803;51.666;7.630;2024-02-16T01:55:04;3.63;;;1.27;;
7523;SDS011;3803;51.666;7.630;2024-02-16T01:55:29;3.05;;;1.30;;
7523;SDS011;3803;51.666;7.630;2024-02-16T01:55:50;2.05;;;1.40;;
7523;SDS011;3803;51.666;7.630;2024-02-16T01:56:11;2.00;;;1.40;;
7523;SDS011;3803;51.666;7.630;2024-02-16T01:56:32;1.75;;;1.35;;
7523;SDS011;3803;51.666;7.630;2024-02-16T01:56:53;1.80;;;1.30;;
7523;SDS011;3803;51.666;7.630;2024-02-16T01:57:15;2.00;;;1.30;;
7523;SDS011;3803;51.666;7.630;2024-02-16T01:57:37;2.50;;;1.30;;
7523;SDS011;3803;51.666;7.630;2024-02-16T01:58:03;1.88;;;1.25;;
7523;SDS011;3803;51.666;7.630;2024-02-16T01:58:25;1.80;;;1.13;;
7523;SDS011;3803;51.666;7.630;2024-02-16T01:58:47;1.20;;;1.10;;
7523;SDS011;3803;51.666;7.630;2024-02-16T01:59:10;1.35;;;1.13;;
7523;SDS011;3803;51.666;7.630;2024-02-16T01:59:30;1.50;;;1.25;;
7523;SDS011;3803;51.666;7.630;2024-02-16T01:59:53;1.92;;;1.30;;
7523;SDS011;3803;51.666;7.630;2024-02-16T02:00:15;2.45;;;1.27;;
7523;SDS011;3803;51.666;7.630;2024-02-16T02:00:37;2.35;;;1.13;;
7523;SDS011;3803;51.666;7.630;2024-02-16T02:00:59;1.80;;;1.20;;
7523;SDS011;3803;51.666;7.630;2024-02-16T02:01:20;2.40;;;1.40;;
7523;SDS011;3803;51.666;7.630;2024-02-16T02:01:41;2.53;;;1.40;;
7523;SDS011;3803;51.666;7.630;2024-02-16T02:02:01;2.33;;;1.40;;
7523;SDS011;3803;51.666;7.630;2024-02-16T02:02:22;1.87;;;1.20;;
7523;SDS011;3803;51.666;7.630;2024-02-16T02:02:45;2.45;;;1.30;;
7523;SDS011;3803;51.666;7.630;2024-02-16T02:03:06;3.13;;;1.30;;
7523;SDS011;3803;51.666;7.630;2024-02-16T02:03:28;2.50;;;1.30;;
7523;SDS011;3803;51.666;7.630;2024-02-16T02:03:49;2.20;;;1.40;;
7523;SDS011;3803;51.666;7.630;2024-02-16T02:04:11;1.80;;;1.40;;
7523;SDS011;3803;51.666;7.630;2024-02-16T02:04:32;6.28;;;1.52;;
7523;SDS011;3803;51.666;7.630;2024-02-16T02:04:53;6.07;;;1.40;;
7523;SDS011;3803;51.666;7.630;2024-02-16T02:05:14;5.90;;;1.20;;
7523;SDS011;3803;51.666;7.630;2024-02-16T02:05:43;1.30;;;1.08;;
7523;SDS011;3803;51.666;7.630;2024-02-16T02:06:06;1.27;;;1.10;;
7523;SDS011;3803;51.666;7.630;2024-02-16T02:06:27;2.78;;;1.35;;
7523;SDS011;3803;51.666;7.630;2024-02-16T02:06:48;3.20;;;1.40;;
7523;SDS011;3803;51.666;7.630;2024-02-16T02:07:15;3.30;;;1.50;;
7523;SDS011;3803;51.666;7.630;2024-02-16T02:07:36;1.50;;;1.20;;
7523;SDS011;3803;51.666;7.630;2024-02-16T02:07:57;1.45;;;1.20;;
7523;SDS011;3803;51.666;7.630;2024-02-16T02:08:17;1.73;;;1.40;;
7523;SDS011;3803;51.666;7.630;2024-02-16T02:08:38;2.30;;;1.70;;
7523;SDS011;3803;51.666;7.630;2024-02-16T02:08:59;2.30;;;1.60;;
7523;SDS011;3803;51.666;7.630;2024-02-16T02:09:19;2.10;;;1.40;;
7523;SDS011;3803;51.666;7.630;2024-02-16T02:09:40;2.25;;;1.20;;
7523;SDS011;3803;51.666;7.630;2024-02-16T02:10:01;3.60;;;1.40;;
7523;SDS011;3803;51.666;7.630;2024-02-16T02:10:23;3.58;;;1.40;;
7523;SDS011;3803;51.666;7.630;2024-02-16T02:10:43;2.72;;;1.33;;
7523;SDS011;3803;51.666;7.630;2024-02-16T02:11:04;3.03;;;1.25;;
7523;SDS011;3803;51.666;7.630;2024-02-16T02:11:25;2.90;;;1.20;;
7523;SDS011;3803;51.666;7.630;2024-02-16T02:11:46;3.80;;;1.30;;
7523;SDS011;3803;51.666;7.630;2024-02-16T02:12:08;2.30;;;1.10;;
7523;SDS011;3803;51.666;7.630;2024-02-16T02:12:30;3.08;;;1.20;;
7523;SDS011;3803;51.666;7.630;2024-02-16T02:12:51;2.83;;;1.30;;
7523;SDS011;3803;51.666;7.630;2024-02-16T02:13:12;3.05;;;1.40;;
7523;SDS011;3803;51.666;7.630;2024-02-16T02:13:33;3.15;;;1.63;;
7523;SDS011;3803;51.666;7.630;2024-02-16T02:13:53;3.07;;;1.50;;
7523;SDS011;3803;51.666;7.630;2024-02-16T02:14:14;3.22;;;1.48;;
7523;SDS011;3803;51.666;7.630;2024-02-16T02:14:35;2.85;;;1.40;;
7523;SDS011;3803;51.666;7.630;2024-02-16T02:14:57;2.83;;;1.45;;
7523;SDS011;3803;51.666;7.630;2024-02-16T02:15:18;2.78;;;1.55;;